KFAF

Details ICAO KFAF (FAF)
Name FELKER AAF
Region United States
Timezone America/New_York (UTC-4.0)
Plans Departing 1
Arriving 1
Stats Elevation 12 ft / 4 m (AMSL)
Location 37.132455° -76.608982°
Runways 1
Magnetic Variation 10.730° W
Sunrise 2018-05-27 09:51:36 UTC / 2018-05-27 05:51:36 Local
Sunset 2018-05-28 00:18:31 UTC / 2018-05-27 20:18:31 Local
Advertisement - Login to hide

Runways

ID Width Length Bearing (true) Bearing (mag) Surface Threshold Offset Overrun Length
14 75 ft / 23 m 3,153 ft / 961 m 126.68° 137.41° Asphalt 0 ft / 0 m 0 ft / 0 m
32 75 ft / 23 m 3,153 ft / 961 m 306.68° 317.41° Asphalt 0 ft / 0 m 0 ft / 0 m

Map

Weather


0- 5 10 15 20 25 30 35+ Temperature / ° C

Clouds and Precipitation
Forecast for 2018-05-27 18:00 UTC. Updated 5 hours ago

Ground ~20,000 ft ~40,000 ft Winds

METAR

KFAF 272056Z AUTO 20008KT 10SM FEW042 30/22 A2990 RMK AO2 SLP128 T02970221 56009 $

TAF

Not found

Frequencies

Unicom 126.30 MHz CTAF
Tower 126.30 MHz TWR
Ground 121.35 MHz GND
Approach 125.70 MHz NORFOLK APP/DEP
Warning: Do not use this data for real-world aviation or navigation. No guarantee of current accuracy is given.